createdAt,value
2023-02-07T00:01:42.314Z,-3.38
2023-02-07T00:04:10.424Z,-3.40
2023-02-07T00:06:38.380Z,-3.40
2023-02-07T00:09:07.500Z,-3.40
2023-02-07T00:11:36.289Z,-3.38
2023-02-07T00:14:05.240Z,-3.35
2023-02-07T00:16:33.538Z,-3.33
2023-02-07T00:19:01.654Z,-3.32
2023-02-07T00:21:31.079Z,-3.32
2023-02-07T00:23:59.308Z,-3.32
2023-02-07T00:26:27.505Z,-3.34
2023-02-07T00:28:55.771Z,-3.37
2023-02-07T00:31:26.867Z,-3.38
2023-02-07T00:34:02.341Z,-3.39
2023-02-07T00:36:32.289Z,-3.39
2023-02-07T00:39:02.710Z,-3.38
2023-02-07T00:41:31.732Z,-3.36
2023-02-07T00:44:01.299Z,-3.32
2023-02-07T00:46:30.700Z,-3.29
2023-02-07T00:48:58.595Z,-3.27
2023-02-07T00:51:26.754Z,-3.26
2023-02-07T00:53:55.100Z,-3.26
2023-02-07T00:56:24.003Z,-3.27
2023-02-07T00:58:52.120Z,-3.28
2023-02-07T01:01:20.716Z,-3.28
2023-02-07T01:03:48.824Z,-3.27
2023-02-07T01:06:19.907Z,-3.26
2023-02-07T01:08:48.191Z,-3.25
2023-02-07T01:11:16.731Z,-3.21
2023-02-07T01:13:45.303Z,-3.16
2023-02-07T01:16:20.420Z,-3.12
2023-02-07T01:18:48.528Z,-3.08
2023-02-07T01:21:17.632Z,-3.07
2023-02-07T01:23:46.114Z,-3.05
2023-02-07T01:26:14.823Z,-3.06
2023-02-07T01:28:42.912Z,-3.08
2023-02-07T01:31:13.527Z,-3.10
2023-02-07T01:33:42.159Z,-3.13
2023-02-07T01:36:12.746Z,-3.14
2023-02-07T01:38:41.170Z,-3.15
2023-02-07T01:41:09.450Z,-3.15
2023-02-07T01:43:59.315Z,-3.13
2023-02-07T01:46:27.911Z,-3.09
2023-02-07T01:48:58.178Z,-3.04
2023-02-07T01:51:26.135Z,-2.99
2023-02-07T01:53:56.340Z,-2.96
2023-02-07T01:56:31.692Z,-2.93
2023-02-07T01:59:04.777Z,-2.93
2023-02-07T02:01:33.412Z,-2.94
2023-02-07T02:04:01.691Z,-2.96
2023-02-07T02:06:30.985Z,-2.99
2023-02-07T02:09:00.624Z,-3.00
2023-02-07T02:11:42.013Z,-3.02
2023-02-07T02:14:26.745Z,-3.02
2023-02-07T02:17:24.817Z,-3.02
2023-02-07T02:20:05.041Z,-2.99
2023-02-07T02:22:59.590Z,-2.97
2023-02-07T02:25:36.946Z,-2.95
2023-02-07T02:28:19.411Z,-2.94
2023-02-07T02:31:20.092Z,-2.96
2023-02-07T02:34:18.594Z,-2.99
2023-02-07T02:37:09.499Z,-3.02
2023-02-07T02:40:00.171Z,-3.06
2023-02-07T02:42:33.456Z,-3.08
2023-02-07T02:45:20.587Z,-3.10
2023-02-07T02:47:48.877Z,-3.10
2023-02-07T02:50:27.203Z,-3.08
2023-02-07T02:52:55.545Z,-3.04
2023-02-07T02:55:33.527Z,-3.01
2023-02-07T02:58:23.507Z,-2.98
2023-02-07T03:01:03.859Z,-2.96
2023-02-07T03:04:00.039Z,-2.94
2023-02-07T03:06:28.065Z,-2.96
2023-02-07T03:09:34.201Z,-2.97
2023-02-07T03:12:40.337Z,-3.00
2023-02-07T03:15:22.236Z,-3.02
2023-02-07T03:17:59.858Z,-3.03
2023-02-07T03:20:34.394Z,-3.02
2023-02-07T03:23:02.676Z,-2.99
2023-02-07T03:25:31.335Z,-2.96
2023-02-07T03:27:59.691Z,-2.93
2023-02-07T03:30:30.412Z,-2.90
2023-02-07T03:32:59.825Z,-2.87
2023-02-07T03:35:35.717Z,-2.86
2023-02-07T03:38:03.789Z,-2.87
2023-02-07T03:40:37.736Z,-2.87
2023-02-07T03:43:14.255Z,-2.89
2023-02-07T03:45:42.767Z,-2.89
2023-02-07T03:48:10.846Z,-2.90
2023-02-07T03:50:39.144Z,-2.89
2023-02-07T03:53:07.494Z,-2.86
2023-02-07T03:55:35.686Z,-2.82
2023-02-07T03:58:03.666Z,-2.78
2023-02-07T04:00:31.695Z,-2.75
2023-02-07T04:02:59.541Z,-2.73
2023-02-07T04:05:27.641Z,-2.71
2023-02-07T04:07:55.432Z,-2.72
2023-02-07T04:10:23.273Z,-2.72
2023-02-07T04:12:55.704Z,-2.74
2023-02-07T04:15:23.754Z,-2.74
2023-02-07T04:17:51.585Z,-2.75
2023-02-07T04:20:19.672Z,-2.74
2023-02-07T04:22:47.542Z,-2.72
2023-02-07T04:25:15.723Z,-2.69
2023-02-07T04:27:43.681Z,-2.65
2023-02-07T04:30:12.158Z,-2.61
2023-02-07T04:32:40.168Z,-2.59
2023-02-07T04:35:08.869Z,-2.57
2023-02-07T04:37:36.771Z,-2.57
2023-02-07T04:40:04.976Z,-2.58
2023-02-07T04:42:33.064Z,-2.59
2023-02-07T04:45:01.124Z,-2.59
2023-02-07T04:47:29.538Z,-2.59
2023-02-07T04:49:58.082Z,-2.59
2023-02-07T04:52:26.259Z,-2.56
2023-02-07T04:54:54.878Z,-2.54
2023-02-07T04:57:22.706Z,-2.49
2023-02-07T04:59:50.536Z,-2.47
2023-02-07T05:02:18.417Z,-2.44
2023-02-07T05:04:46.475Z,-2.43
2023-02-07T05:07:14.639Z,-2.43
2023-02-07T05:09:43.734Z,-2.45
2023-02-07T05:12:11.618Z,-2.47
2023-02-07T05:14:39.563Z,-2.48
2023-02-07T05:17:07.556Z,-2.48
2023-02-07T05:19:35.580Z,-2.48
2023-02-07T05:22:03.554Z,-2.47
2023-02-07T05:24:31.710Z,-2.44
2023-02-07T05:27:00.010Z,-2.41
2023-02-07T05:29:27.950Z,-2.38
2023-02-07T05:32:14.476Z,-2.35
2023-02-07T05:34:43.033Z,-2.33
2023-02-07T05:37:11.134Z,-2.35
2023-02-07T05:39:39.244Z,-2.35
2023-02-07T05:42:07.269Z,-2.37
2023-02-07T05:44:35.132Z,-2.37
2023-02-07T05:47:07.779Z,-2.39
2023-02-07T05:49:35.829Z,-2.37
2023-02-07T05:52:04.336Z,-2.35
2023-02-07T05:54:33.524Z,-2.32
2023-02-07T05:57:01.542Z,-2.27
2023-02-07T05:59:29.652Z,-2.22
2023-02-07T06:01:57.883Z,-2.18
2023-02-07T06:04:26.343Z,-2.14
2023-02-07T06:06:54.879Z,-2.11
2023-02-07T06:09:22.877Z,-2.09
2023-02-07T06:11:52.067Z,-2.06
2023-02-07T06:14:20.318Z,-2.03
2023-02-07T06:16:49.915Z,-2.01
2023-02-07T06:19:17.838Z,-1.96
2023-02-07T06:21:46.943Z,-1.91
2023-02-07T06:24:15.767Z,-1.85
2023-02-07T06:26:43.838Z,-1.79
2023-02-07T06:29:11.900Z,-1.75
2023-02-07T06:31:39.782Z,-1.71
2023-02-07T06:34:08.309Z,-1.68
2023-02-07T06:36:36.445Z,-1.67
2023-02-07T06:39:04.970Z,-1.64
2023-02-07T06:41:32.914Z,-1.61
2023-02-07T06:44:00.801Z,-1.57
2023-02-07T06:46:28.966Z,-1.51
2023-02-07T06:48:56.914Z,-1.44
2023-02-07T06:51:25.189Z,-1.35
2023-02-07T06:53:53.382Z,-1.27
2023-02-07T06:56:23.027Z,-1.18
2023-02-07T06:58:50.850Z,-1.11
2023-02-07T07:01:20.094Z,-1.04
2023-02-07T07:03:49.173Z,-0.99
2023-02-07T07:06:17.122Z,-0.91
2023-02-07T07:08:47.999Z,-0.83
2023-02-07T07:11:18.894Z,-0.74
2023-02-07T07:13:47.202Z,-0.64
2023-02-07T07:16:15.572Z,-0.52
2023-02-07T07:18:47.256Z,-0.40
2023-02-07T07:21:16.112Z,-0.28
2023-02-07T07:23:47.531Z,-0.18
2023-02-07T07:26:15.510Z,-0.08
2023-02-07T07:28:43.542Z,0.01
2023-02-07T07:31:12.093Z,0.11
2023-02-07T07:33:40.099Z,0.20
2023-02-07T07:36:09.809Z,0.29
2023-02-07T07:41:11.183Z,0.51
2023-02-07T07:43:41.787Z,0.65
2023-02-07T07:46:10.068Z,0.78
2023-02-07T07:48:38.409Z,0.92
2023-02-07T07:51:06.480Z,1.06
2023-02-07T07:53:34.543Z,1.20
2023-02-07T07:56:03.226Z,1.35
2023-02-07T07:58:31.376Z,1.48
2023-02-07T08:01:00.815Z,1.59
2023-02-07T08:03:29.654Z,1.69
2023-02-07T08:05:58.088Z,1.78
2023-02-07T08:08:26.112Z,1.84
2023-02-07T08:10:54.114Z,1.90
2023-02-07T08:13:22.547Z,1.96
2023-02-07T08:15:51.190Z,2.01
2023-02-07T08:18:19.021Z,2.06
2023-02-07T08:20:51.211Z,2.10
2023-02-07T08:23:19.967Z,2.17
2023-02-07T08:25:49.947Z,2.22
2023-02-07T08:28:18.114Z,2.29
2023-02-07T08:30:48.978Z,2.35
2023-02-07T08:33:17.635Z,2.43
2023-02-07T08:35:45.669Z,2.50
2023-02-07T08:38:13.596Z,2.57
2023-02-07T08:40:41.618Z,2.64
2023-02-07T08:43:12.474Z,2.71
2023-02-07T08:45:41.500Z,2.78
2023-02-07T08:48:09.797Z,2.84
2023-02-07T08:50:38.255Z,2.90
2023-02-07T08:53:06.636Z,2.93
2023-02-07T08:55:34.990Z,2.96
2023-02-07T08:58:02.962Z,2.98
2023-02-07T09:00:31.803Z,2.99
2023-02-07T09:03:00.012Z,3.01
2023-02-07T09:05:28.170Z,3.03
2023-02-07T09:07:56.186Z,3.04
2023-02-07T09:10:27.142Z,3.03
2023-02-07T09:12:55.124Z,3.02
2023-02-07T09:15:23.202Z,3.01
2023-02-07T09:17:51.930Z,2.98
2023-02-07T09:20:19.943Z,2.95
2023-02-07T09:23:06.686Z,2.93
2023-02-07T09:25:37.726Z,2.90
2023-02-07T09:28:05.719Z,2.88
2023-02-07T09:30:33.677Z,2.86
2023-02-07T09:33:02.529Z,2.83
2023-02-07T09:35:30.665Z,2.81
2023-02-07T09:37:58.895Z,2.80
2023-02-07T09:40:27.272Z,2.80
2023-02-07T09:43:20.907Z,2.81
2023-02-07T09:45:54.121Z,2.81
2023-02-07T09:48:25.420Z,2.81
2023-02-07T09:51:00.561Z,2.79
2023-02-07T09:53:36.716Z,2.77
2023-02-07T09:56:04.762Z,2.75
2023-02-07T09:58:54.301Z,2.72
2023-02-07T10:01:24.516Z,2.68
2023-02-07T10:04:10.855Z,2.66
2023-02-07T10:06:41.132Z,2.63
2023-02-07T10:09:10.749Z,2.61
2023-02-07T10:11:49.432Z,2.60
2023-02-07T10:14:42.765Z,2.60
2023-02-07T10:17:34.713Z,2.62
2023-02-07T10:20:39.984Z,2.63
2023-02-07T10:23:26.843Z,2.66
2023-02-07T10:26:23.639Z,2.68
2023-02-07T10:29:01.107Z,2.70
2023-02-07T10:31:30.526Z,2.72
2023-02-07T10:34:10.806Z,2.73
2023-02-07T10:36:42.038Z,2.75
2023-02-07T10:39:29.022Z,2.77
2023-02-07T10:41:58.011Z,2.79
2023-02-07T10:44:26.029Z,2.81
2023-02-07T10:46:58.619Z,2.84
2023-02-07T10:49:28.805Z,2.87
2023-02-07T10:52:12.055Z,2.89
2023-02-07T10:55:03.401Z,2.91
2023-02-07T10:57:31.461Z,2.92
2023-02-07T11:00:02.466Z,2.93
2023-02-07T11:02:31.840Z,2.94
2023-02-07T11:05:26.751Z,2.94
2023-02-07T11:07:59.407Z,2.94
2023-02-07T11:10:33.353Z,2.94
2023-02-07T11:13:02.082Z,2.93
2023-02-07T11:15:38.065Z,2.92
2023-02-07T11:18:06.643Z,2.91
2023-02-07T11:20:37.357Z,2.91
2023-02-07T11:23:12.094Z,2.91
2023-02-07T11:25:43.511Z,2.91
2023-02-07T11:28:21.802Z,2.90
2023-02-07T11:30:58.236Z,2.88
2023-02-07T11:33:29.810Z,2.87
2023-02-07T11:36:10.434Z,2.85
2023-02-07T11:38:41.471Z,2.81
2023-02-07T11:41:20.833Z,2.79
2023-02-07T11:44:00.124Z,2.75
2023-02-07T11:46:39.918Z,2.71
2023-02-07T11:49:19.622Z,2.68
2023-02-07T11:51:54.008Z,2.66
2023-02-07T12:16:11.097Z,2.69
2023-02-07T12:18:52.781Z,2.65
2023-02-07T12:21:28.703Z,2.56
2023-02-07T12:24:01.508Z,2.50
2023-02-07T12:26:37.312Z,2.44
2023-02-07T12:29:21.678Z,2.40
2023-02-07T12:31:57.334Z,2.37
2023-02-07T12:34:38.911Z,2.34
2023-02-07T12:37:22.011Z,2.32
2023-02-07T12:40:07.993Z,2.29
2023-02-07T12:42:41.007Z,2.25
2023-02-07T12:45:16.978Z,2.19
2023-02-07T12:47:50.774Z,2.14
2023-02-07T12:50:57.328Z,2.10
2023-02-07T12:53:28.450Z,2.04
2023-02-07T12:56:09.730Z,1.99
2023-02-07T12:58:42.488Z,1.93
2023-02-07T13:01:48.132Z,1.86
2023-02-07T13:04:31.046Z,1.77
2023-02-07T13:07:12.306Z,1.71
2023-02-07T13:09:45.074Z,1.66
2023-02-07T13:12:51.573Z,1.62
2023-02-07T13:15:42.751Z,1.59
2023-02-07T13:18:22.120Z,1.55
2023-02-07T13:21:08.878Z,1.53
2023-02-07T13:23:38.534Z,1.51
2023-02-07T13:26:10.062Z,1.49
2023-02-07T13:28:56.254Z,1.46
2023-02-07T13:31:36.074Z,1.42
2023-02-07T13:34:03.919Z,1.36
2023-02-07T13:36:43.513Z,1.30
2023-02-07T13:39:36.250Z,1.23
2023-02-07T13:42:16.509Z,1.15
2023-02-07T13:45:18.393Z,1.09
2023-02-07T13:47:46.244Z,1.01
2023-02-07T13:50:19.394Z,0.94
2023-02-07T13:53:03.020Z,0.87
2023-02-07T13:55:38.872Z,0.80
2023-02-07T13:58:52.205Z,0.73
2023-02-07T14:01:25.519Z,0.65
2023-02-07T14:04:11.735Z,0.59
2023-02-07T14:06:40.725Z,0.52
2023-02-07T14:09:22.698Z,0.46
2023-02-07T14:12:04.870Z,0.39
2023-02-07T14:14:35.992Z,0.32
2023-02-07T14:17:15.567Z,0.24
2023-02-07T14:19:45.591Z,0.18
2023-02-07T14:22:27.240Z,0.11
2023-02-07T14:24:58.401Z,0.06
2023-02-07T14:27:29.512Z,0.01
2023-02-07T14:30:01.074Z,-0.04
2023-02-07T14:32:31.973Z,-0.10
2023-02-07T14:35:05.028Z,-0.15
2023-02-07T14:37:51.732Z,-0.19
2023-02-07T14:40:20.119Z,-0.24
2023-02-07T14:43:03.695Z,-0.27
2023-02-07T14:45:34.571Z,-0.30
2023-02-07T14:48:08.042Z,-0.34
2023-02-07T14:50:37.069Z,-0.37
2023-02-07T14:53:06.065Z,-0.41
2023-02-07T14:55:42.281Z,-0.44
2023-02-07T14:58:40.505Z,-0.47
2023-02-07T15:01:12.726Z,-0.52
2023-02-07T15:03:41.633Z,-0.56
2023-02-07T15:06:30.622Z,-0.60
2023-02-07T15:09:04.292Z,-0.67
2023-02-07T15:11:38.420Z,-0.74
2023-02-07T15:14:20.095Z,-0.81
2023-02-07T15:16:48.504Z,-0.86
2023-02-07T15:19:31.704Z,-0.92
2023-02-07T15:21:59.856Z,-0.97
2023-02-07T15:24:39.761Z,-1.01
2023-02-07T15:27:22.128Z,-1.06
2023-02-07T15:29:58.226Z,-1.11
2023-02-07T15:32:29.951Z,-1.15
2023-02-07T15:34:58.580Z,-1.17
2023-02-07T15:37:27.661Z,-1.17
2023-02-07T15:39:56.869Z,-1.17
2023-02-07T15:42:24.965Z,-1.14
2023-02-07T15:44:54.675Z,-1.09
2023-02-07T15:47:28.459Z,-1.03
2023-02-07T15:50:21.490Z,-0.99
2023-02-07T15:52:54.115Z,-0.93
2023-02-07T15:55:45.433Z,-0.90
2023-02-07T15:58:28.902Z,-0.88
2023-02-07T16:01:13.932Z,-0.87
2023-02-07T16:03:43.825Z,-0.91
2023-02-07T16:06:22.073Z,-0.95
2023-02-07T16:08:51.535Z,-1.01
2023-02-07T16:11:25.498Z,-1.05
2023-02-07T16:13:55.617Z,-1.12
2023-02-07T16:16:29.020Z,-1.18
2023-02-07T16:19:15.028Z,-1.26
2023-02-07T16:21:43.270Z,-1.37
2023-02-07T16:24:15.294Z,-1.47
2023-02-07T16:26:46.487Z,-1.58
2023-02-07T16:29:20.349Z,-1.69
2023-02-07T16:31:49.470Z,-1.80
2023-02-07T16:34:18.110Z,-1.89
2023-02-07T16:36:51.353Z,-2.00
2023-02-07T16:39:19.282Z,-2.12
2023-02-07T16:41:48.436Z,-2.23
2023-02-07T16:44:22.943Z,-2.33
2023-02-07T16:46:53.909Z,-2.43
2023-02-07T16:49:24.006Z,-2.51
2023-02-07T16:51:52.392Z,-2.58
2023-02-07T16:54:20.506Z,-2.64
2023-02-07T16:56:50.604Z,-2.68
2023-02-07T16:59:19.231Z,-2.72
2023-02-07T17:01:48.136Z,-2.74
2023-02-07T17:04:16.541Z,-2.78
2023-02-07T17:06:44.725Z,-2.80
2023-02-07T17:09:17.026Z,-2.86
2023-02-07T17:11:44.990Z,-2.90
2023-02-07T17:14:13.945Z,-2.96
2023-02-07T17:16:41.889Z,-3.02
2023-02-07T17:19:14.580Z,-3.09
2023-02-07T17:21:43.008Z,-3.16
2023-02-07T17:24:11.232Z,-3.23
2023-02-07T17:26:39.924Z,-3.31
2023-02-07T17:29:07.978Z,-3.39
2023-02-07T17:31:36.920Z,-3.47
2023-02-07T17:34:09.629Z,-3.57
2023-02-07T17:36:37.920Z,-3.65
2023-02-07T17:39:09.693Z,-3.74
2023-02-07T17:41:39.419Z,-3.82
2023-02-07T17:44:09.238Z,-3.88
2023-02-07T17:46:37.457Z,-3.93
2023-02-07T17:49:10.068Z,-3.98
2023-02-07T17:51:38.104Z,-3.98
2023-02-07T17:54:06.271Z,-3.98
2023-02-07T17:56:35.133Z,-3.97
2023-02-07T17:59:06.027Z,-3.94
2023-02-07T18:01:35.612Z,-3.93
2023-02-07T18:04:04.994Z,-3.91
2023-02-07T18:06:33.755Z,-3.92
2023-02-07T18:09:01.612Z,-3.94
2023-02-07T18:11:30.411Z,-3.97
2023-02-07T18:14:01.836Z,-4.01
2023-02-07T18:16:29.898Z,-4.06
2023-02-07T18:18:58.811Z,-4.12
2023-02-07T18:21:27.748Z,-4.18
2023-02-07T18:23:56.378Z,-4.25
2023-02-07T18:26:24.764Z,-4.31
2023-02-07T18:28:53.459Z,-4.37
2023-02-07T18:31:23.175Z,-4.43
2023-02-07T18:33:51.684Z,-4.48
2023-02-07T18:36:20.331Z,-4.52
2023-02-07T18:38:48.952Z,-4.55
2023-02-07T18:41:21.826Z,-4.56
2023-02-07T18:43:50.842Z,-4.57
2023-02-07T18:46:20.299Z,-4.55
2023-02-07T18:48:51.324Z,-4.52
2023-02-07T18:51:19.649Z,-4.50
2023-02-07T18:53:47.655Z,-4.49
2023-02-07T18:56:21.238Z,-4.49
2023-02-07T18:58:52.765Z,-4.51
2023-02-07T19:01:20.867Z,-4.52
2023-02-07T19:03:54.122Z,-4.55
2023-02-07T19:06:23.265Z,-4.59
2023-02-07T19:08:51.364Z,-4.64
2023-02-07T19:11:19.943Z,-4.69
2023-02-07T19:13:48.528Z,-4.75
2023-02-07T19:16:19.083Z,-4.81
2023-02-07T19:18:47.281Z,-4.88
2023-02-07T19:21:21.746Z,-4.95
2023-02-07T19:23:49.680Z,-5.02
2023-02-07T19:26:17.552Z,-5.08
2023-02-07T19:28:45.861Z,-5.13
2023-02-07T19:31:18.306Z,-5.16
2023-02-07T19:33:48.925Z,-5.16
2023-02-07T19:36:18.311Z,-5.16
2023-02-07T19:38:48.598Z,-5.14
2023-02-07T19:41:19.407Z,-5.11
2023-02-07T19:43:47.779Z,-5.09
2023-02-07T19:46:16.902Z,-5.09
2023-02-07T19:48:45.231Z,-5.09
2023-02-07T19:51:19.122Z,-5.11
2023-02-07T19:53:48.085Z,-5.13
2023-02-07T19:56:17.419Z,-5.17
2023-02-07T19:58:47.467Z,-5.22
2023-02-07T20:01:15.806Z,-5.27
2023-02-07T20:03:44.359Z,-5.33
2023-02-07T20:06:14.332Z,-5.39
2023-02-07T20:08:42.282Z,-5.45
2023-02-07T20:11:14.532Z,-5.50
2023-02-07T20:13:50.311Z,-5.55
2023-02-07T20:16:21.651Z,-5.60
2023-02-07T20:18:52.158Z,-5.63
2023-02-07T20:21:25.031Z,-5.66
2023-02-07T20:23:54.357Z,-5.64
2023-02-07T20:26:29.069Z,-5.62
2023-02-07T20:29:01.939Z,-5.60
2023-02-07T20:31:32.092Z,-5.56
2023-02-07T20:34:02.066Z,-5.53
2023-02-07T20:36:33.629Z,-5.52
2023-02-07T20:39:03.243Z,-5.53
2023-02-07T20:41:32.724Z,-5.55
2023-02-07T20:44:04.884Z,-5.58
2023-02-07T20:46:34.991Z,-5.62
2023-02-07T20:49:07.527Z,-5.67
2023-02-07T20:51:36.182Z,-5.72
2023-02-07T20:54:04.983Z,-5.78
2023-02-07T20:56:33.826Z,-5.84
2023-02-07T20:59:04.250Z,-5.91
2023-02-07T21:01:33.066Z,-5.97
2023-02-07T21:04:03.880Z,-6.04
2023-02-07T21:06:32.791Z,-6.08
2023-02-07T21:09:03.892Z,-6.13
2023-02-07T21:11:45.066Z,-6.16
2023-02-07T21:14:19.451Z,-6.16
2023-02-07T21:16:48.069Z,-6.16
2023-02-07T21:19:18.223Z,-6.14
2023-02-07T21:21:47.105Z,-6.11
2023-02-07T21:24:15.242Z,-6.09
2023-02-07T21:26:43.363Z,-6.08
2023-02-07T21:29:11.762Z,-6.09
2023-02-07T21:31:39.759Z,-6.11
2023-02-07T21:34:09.507Z,-6.12
2023-02-07T21:36:38.121Z,-6.14
2023-02-07T21:39:09.289Z,-6.18
2023-02-07T21:41:38.632Z,-6.21
2023-02-07T21:44:06.733Z,-6.25
2023-02-07T21:46:37.389Z,-6.27
2023-02-07T21:49:07.506Z,-6.28
2023-02-07T21:51:35.965Z,-6.28
2023-02-07T21:54:04.783Z,-6.26
2023-02-07T21:56:35.999Z,-6.23
2023-02-07T21:59:06.118Z,-6.18
2023-02-07T22:01:36.603Z,-6.13
2023-02-07T22:04:05.860Z,-6.10
2023-02-07T22:06:34.614Z,-6.08
2023-02-07T22:09:04.946Z,-6.07
2023-02-07T22:11:34.704Z,-6.09
2023-02-07T22:14:03.093Z,-6.12
2023-02-07T22:16:31.321Z,-6.15
2023-02-07T22:19:00.089Z,-6.18
2023-02-07T22:21:30.696Z,-6.23
2023-02-07T22:23:58.884Z,-6.28
2023-02-07T22:26:27.148Z,-6.33
2023-02-07T22:28:55.640Z,-6.38
2023-02-07T22:31:25.588Z,-6.44
2023-02-07T22:33:54.436Z,-6.49
2023-02-07T22:36:26.663Z,-6.54
2023-02-07T22:38:54.625Z,-6.56
2023-02-07T22:41:22.507Z,-6.59
2023-02-07T22:43:50.711Z,-6.59
2023-02-07T22:46:21.129Z,-6.58
2023-02-07T22:48:49.658Z,-6.56
2023-02-07T22:51:21.836Z,-6.53
2023-02-07T22:53:50.502Z,-6.50
2023-02-07T22:56:19.170Z,-6.49
2023-02-07T22:58:47.484Z,-6.49
2023-02-07T23:01:23.008Z,-6.52
2023-02-07T23:03:51.567Z,-6.55
2023-02-07T23:06:19.839Z,-6.60
2023-02-07T23:08:48.954Z,-6.65
2023-02-07T23:11:17.754Z,-6.69
2023-02-07T23:13:46.092Z,-6.74
2023-02-07T23:16:15.380Z,-6.78
2023-02-07T23:18:44.000Z,-6.84
2023-02-07T23:21:13.886Z,-6.88
2023-02-07T23:23:42.425Z,-6.90
2023-02-07T23:26:12.370Z,-6.93
2023-02-07T23:28:40.554Z,-6.93
2023-02-07T23:31:10.460Z,-6.93
2023-02-07T23:33:38.992Z,-6.90
2023-02-07T23:36:07.050Z,-6.88
2023-02-07T23:38:35.414Z,-6.86
2023-02-07T23:41:03.677Z,-6.86
2023-02-07T23:43:33.133Z,-6.87
2023-02-07T23:46:01.004Z,-6.90
2023-02-07T23:48:29.032Z,-6.95
2023-02-07T23:50:57.798Z,-7.00
2023-02-07T23:53:25.845Z,-7.06
2023-02-07T23:55:55.178Z,-7.13
2023-02-07T23:58:24.191Z,-7.20
